createdAt,value
2019-05-11T00:00:01.421Z,42.84
2019-05-11T00:00:26.237Z,43.36
2019-05-11T00:00:51.060Z,42.75
2019-05-11T00:01:15.901Z,42.60
2019-05-11T00:01:40.531Z,42.64
2019-05-11T00:02:05.332Z,42.77
2019-05-11T00:02:30.138Z,43.00
2019-05-11T00:02:54.950Z,43.25
2019-05-11T00:03:19.740Z,42.59
2019-05-11T00:03:44.426Z,42.88
2019-05-11T00:04:09.238Z,42.97
2019-05-11T00:04:34.029Z,42.77
2019-05-11T00:04:58.850Z,42.94
2019-05-11T00:05:23.650Z,42.93
2019-05-11T00:05:48.274Z,42.95
2019-05-11T00:06:13.112Z,43.00
2019-05-11T00:06:38.008Z,43.20
2019-05-11T00:07:02.837Z,42.88
2019-05-11T00:07:27.716Z,43.21
2019-05-11T00:07:52.336Z,43.02
2019-05-11T00:08:17.270Z,42.90
2019-05-11T00:08:42.163Z,43.10
2019-05-11T00:09:07.485Z,43.16
2019-05-11T00:09:32.300Z,43.06
2019-05-11T00:09:58.549Z,43.34
2019-05-11T00:10:23.835Z,42.88
2019-05-11T00:10:48.692Z,43.21
2019-05-11T00:11:13.526Z,43.32
2019-05-11T00:11:38.425Z,42.92
2019-05-11T00:12:03.020Z,42.93
2019-05-11T00:12:27.857Z,42.81
2019-05-11T00:12:52.715Z,43.04
2019-05-11T00:13:17.585Z,43.06
2019-05-11T00:13:42.392Z,42.97
2019-05-11T00:14:07.115Z,43.09
2019-05-11T00:14:31.909Z,42.70
2019-05-11T00:14:56.807Z,42.70
2019-05-11T00:15:21.644Z,43.18
2019-05-11T00:15:46.573Z,43.05
2019-05-11T00:16:11.193Z,42.66
2019-05-11T00:16:36.120Z,43.19
2019-05-11T00:17:00.934Z,42.94
2019-05-11T00:17:25.749Z,42.96
2019-05-11T00:17:50.555Z,43.20
2019-05-11T00:18:15.249Z,42.84
2019-05-11T00:18:40.075Z,42.94
2019-05-11T00:19:04.895Z,42.94
2019-05-11T00:19:29.731Z,42.94
2019-05-11T00:19:54.615Z,42.79
2019-05-11T00:20:19.271Z,43.43
2019-05-11T00:20:44.095Z,42.83
2019-05-11T00:21:08.949Z,42.41
2019-05-11T00:21:33.867Z,42.96
2019-05-11T00:21:58.689Z,43.39
2019-05-11T00:22:23.363Z,42.97
2019-05-11T00:22:48.168Z,43.13
2019-05-11T00:23:13.047Z,42.86
2019-05-11T00:23:37.865Z,42.67
2019-05-11T00:24:02.727Z,42.87
2019-05-11T00:24:30.473Z,42.91
2019-05-11T00:24:55.306Z,43.16
2019-05-11T00:25:20.114Z,42.88
2019-05-11T00:25:44.934Z,42.94
2019-05-11T00:26:09.727Z,43.23
2019-05-11T00:26:34.441Z,42.76
2019-05-11T00:26:59.241Z,43.03
2019-05-11T00:27:24.049Z,43.12
2019-05-11T00:27:48.941Z,43.13
2019-05-11T00:28:13.957Z,42.95
2019-05-11T00:28:38.563Z,43.36
2019-05-11T00:29:03.427Z,42.78
2019-05-11T00:29:28.337Z,42.93
2019-05-11T00:29:53.213Z,43.02
2019-05-11T00:30:18.058Z,42.70
2019-05-11T00:30:42.683Z,42.84
2019-05-11T00:31:07.476Z,42.98
2019-05-11T00:31:32.323Z,42.81
2019-05-11T00:31:57.199Z,42.62
2019-05-11T00:32:22.852Z,42.76
2019-05-11T00:32:47.802Z,43.28
2019-05-11T00:33:12.605Z,43.12
2019-05-11T00:33:37.453Z,43.41
2019-05-11T00:34:02.263Z,43.13
2019-05-11T00:34:27.085Z,42.95
2019-05-11T00:34:51.711Z,43.24
2019-05-11T00:35:16.601Z,43.39
2019-05-11T00:35:41.403Z,43.07
2019-05-11T00:36:06.211Z,43.27
2019-05-11T00:36:31.008Z,43.31
2019-05-11T00:36:55.616Z,42.90
2019-05-11T00:37:20.427Z,43.20
2019-05-11T00:37:45.221Z,43.35
2019-05-11T00:38:10.041Z,43.51
2019-05-11T00:38:34.827Z,43.51
2019-05-11T00:38:59.451Z,43.02
2019-05-11T00:39:24.260Z,42.93
2019-05-11T00:39:49.090Z,42.98
2019-05-11T00:40:15.261Z,43.32
2019-05-11T00:40:40.167Z,42.67
2019-05-11T00:41:04.776Z,43.32
2019-05-11T00:41:29.641Z,43.16
2019-05-11T00:41:54.453Z,43.17
2019-05-11T00:42:19.256Z,43.06
2019-05-11T00:42:44.068Z,42.88
2019-05-11T00:43:08.736Z,42.87
2019-05-11T00:43:33.555Z,42.77
2019-05-11T00:43:58.379Z,43.02
2019-05-11T00:44:23.181Z,43.04
2019-05-11T00:44:47.981Z,42.99
2019-05-11T00:45:12.592Z,43.16
2019-05-11T00:45:37.408Z,42.64
2019-05-11T00:46:02.241Z,42.90
2019-05-11T00:46:27.119Z,42.95
2019-05-11T00:46:51.951Z,43.11
2019-05-11T00:47:16.575Z,43.15
2019-05-11T00:47:41.401Z,42.72
2019-05-11T00:48:06.580Z,42.90
2019-05-11T00:48:31.455Z,43.08
2019-05-11T00:48:56.299Z,42.62
2019-05-11T00:49:20.905Z,43.15
2019-05-11T00:49:45.715Z,42.91
2019-05-11T00:50:10.554Z,42.90
2019-05-11T00:50:39.396Z,42.61
2019-05-11T00:51:01.849Z,43.06
2019-05-11T00:51:26.590Z,43.05
2019-05-11T00:51:51.427Z,43.04
2019-05-11T00:52:16.272Z,43.03
2019-05-11T00:52:41.085Z,42.58
2019-05-11T00:53:05.892Z,43.08
2019-05-11T00:53:30.521Z,42.64
2019-05-11T00:53:55.342Z,43.10
2019-05-11T00:54:20.133Z,43.03
2019-05-11T00:54:44.956Z,43.15
2019-05-11T00:55:09.784Z,43.20
2019-05-11T00:55:34.409Z,42.79
2019-05-11T00:55:59.199Z,43.00
2019-05-11T00:56:24.032Z,42.77
2019-05-11T00:56:49.764Z,43.14
2019-05-11T00:57:15.009Z,43.18
2019-05-11T00:57:39.651Z,43.01
2019-05-11T00:58:04.460Z,43.06
2019-05-11T00:58:29.266Z,42.96
2019-05-11T00:58:54.163Z,43.19
2019-05-11T00:59:21.714Z,42.72
2019-05-11T00:59:45.309Z,43.27
2019-05-11T01:00:10.220Z,43.03
2019-05-11T01:00:35.064Z,43.13
2019-05-11T01:00:59.867Z,42.74
2019-05-11T01:01:24.745Z,42.90
2019-05-11T01:01:49.473Z,43.13
2019-05-11T01:02:14.320Z,43.22
2019-05-11T01:02:39.127Z,43.08
2019-05-11T01:03:04.500Z,42.75
2019-05-11T01:03:29.599Z,42.97
2019-05-11T01:03:54.206Z,42.97
2019-05-11T01:04:19.092Z,43.08
2019-05-11T01:04:44.133Z,43.02
2019-05-11T01:05:08.973Z,42.87
2019-05-11T01:05:33.856Z,43.12
2019-05-11T01:05:58.459Z,42.76
2019-05-11T01:06:23.253Z,43.04
2019-05-11T01:06:48.069Z,42.85
2019-05-11T01:07:12.905Z,42.66
2019-05-11T01:07:37.719Z,42.92
2019-05-11T01:08:02.433Z,42.88
2019-05-11T01:08:27.258Z,43.12
2019-05-11T01:08:52.075Z,43.45
2019-05-11T01:09:16.890Z,42.81
2019-05-11T01:09:41.730Z,43.30
2019-05-11T01:10:21.780Z,42.99
2019-05-11T01:10:42.015Z,43.00
2019-05-11T01:11:00.525Z,43.08
2019-05-11T01:11:25.324Z,42.94
2019-05-11T01:11:50.141Z,43.10
2019-05-11T01:12:14.828Z,42.86
2019-05-11T01:12:39.624Z,43.21
2019-05-11T01:13:04.524Z,43.17
2019-05-11T01:13:29.929Z,42.88
2019-05-11T01:13:54.788Z,43.32
2019-05-11T01:14:19.417Z,42.70
2019-05-11T01:14:44.319Z,43.02
2019-05-11T01:15:09.681Z,42.99
2019-05-11T01:15:34.545Z,42.82
2019-05-11T01:15:59.371Z,42.97
2019-05-11T01:16:24.164Z,42.96
2019-05-11T01:16:48.985Z,42.76
2019-05-11T01:17:14.029Z,42.66
2019-05-11T01:17:38.830Z,42.98
2019-05-11T01:18:04.694Z,42.89
2019-05-11T01:18:29.400Z,42.80
2019-05-11T01:18:54.210Z,42.98
2019-05-11T01:19:19.025Z,42.77
2019-05-11T01:19:43.837Z,42.89
2019-05-11T01:20:08.662Z,42.94
2019-05-11T01:20:33.243Z,42.84
2019-05-11T01:20:58.054Z,42.85
2019-05-11T01:21:22.893Z,42.98
2019-05-11T01:21:47.718Z,42.88
2019-05-11T01:22:12.528Z,42.62
2019-05-11T01:22:37.161Z,42.89
2019-05-11T01:23:01.987Z,43.04
2019-05-11T01:23:26.813Z,43.04
2019-05-11T01:23:51.617Z,42.99
2019-05-11T01:24:17.264Z,42.78
2019-05-11T01:24:41.899Z,42.79
2019-05-11T01:25:07.662Z,42.79
2019-05-11T01:25:33.919Z,42.98
2019-05-11T01:25:58.730Z,43.07
2019-05-11T01:26:23.619Z,42.88
2019-05-11T01:26:48.236Z,42.93
2019-05-11T01:27:14.148Z,43.29
2019-05-11T01:27:38.977Z,42.94
2019-05-11T01:28:04.242Z,42.94
2019-05-11T01:28:29.208Z,42.63
2019-05-11T01:28:54.402Z,42.88
2019-05-11T01:29:19.216Z,42.99
2019-05-11T01:29:44.383Z,43.31
2019-05-11T01:30:09.718Z,42.66
2019-05-11T01:30:34.529Z,43.01
2019-05-11T01:30:59.326Z,43.07
2019-05-11T01:31:24.184Z,42.58
2019-05-11T01:31:49.001Z,42.78
2019-05-11T01:32:14.068Z,42.78
2019-05-11T01:32:38.942Z,43.25
2019-05-11T01:33:03.566Z,43.07
2019-05-11T01:33:28.534Z,43.10
2019-05-11T01:33:53.378Z,43.06
2019-05-11T01:34:18.198Z,42.81
2019-05-11T01:34:43.181Z,42.80
2019-05-11T01:35:08.125Z,42.95
2019-05-11T01:35:32.926Z,42.88
2019-05-11T01:35:58.017Z,42.68
2019-05-11T01:36:22.834Z,42.84
2019-05-11T01:36:47.659Z,42.99
2019-05-11T01:37:12.338Z,43.24
2019-05-11T01:37:37.135Z,42.79
2019-05-11T01:38:01.986Z,42.84
2019-05-11T01:38:26.863Z,42.98
2019-05-11T01:38:51.711Z,43.23
2019-05-11T01:39:16.510Z,42.59
2019-05-11T01:39:41.348Z,43.03
2019-05-11T01:40:07.108Z,42.66
2019-05-11T01:40:31.934Z,43.09
2019-05-11T01:40:59.070Z,42.58
2019-05-11T01:41:23.084Z,42.69
2019-05-11T01:41:47.968Z,42.70
2019-05-11T01:42:12.807Z,42.92
2019-05-11T01:42:37.785Z,43.39
2019-05-11T01:43:02.619Z,43.10
2019-05-11T01:43:27.273Z,42.75
2019-05-11T01:43:52.100Z,42.76
2019-05-11T01:44:16.949Z,43.13
2019-05-11T01:44:41.928Z,42.80
2019-05-11T01:45:06.998Z,43.06
2019-05-11T01:45:31.950Z,42.87
2019-05-11T01:45:56.770Z,43.14
2019-05-11T01:46:21.612Z,43.14
2019-05-11T01:46:47.184Z,43.15
2019-05-11T01:47:11.986Z,43.02
2019-05-11T01:47:36.874Z,42.97
2019-05-11T01:48:01.756Z,42.89
2019-05-11T01:48:26.575Z,42.40
2019-05-11T01:48:51.675Z,42.98
2019-05-11T01:49:16.484Z,43.06
2019-05-11T01:49:41.115Z,42.79
2019-05-11T01:50:05.962Z,43.21
2019-05-11T01:50:30.813Z,43.27
2019-05-11T01:50:55.656Z,43.40
2019-05-11T01:51:20.722Z,43.27
2019-05-11T01:51:45.338Z,42.76
2019-05-11T01:52:10.275Z,42.80
2019-05-11T01:52:35.187Z,43.13
2019-05-11T01:53:00.019Z,43.15
2019-05-11T01:53:24.843Z,42.66
2019-05-11T01:53:49.491Z,42.88
2019-05-11T01:54:14.332Z,43.38
2019-05-11T01:54:39.237Z,42.75
2019-05-11T01:55:04.166Z,42.65
2019-05-11T01:55:29.560Z,43.01
2019-05-11T01:55:54.187Z,43.24
2019-05-11T01:56:18.996Z,43.09
2019-05-11T01:56:43.784Z,42.67
2019-05-11T01:57:08.620Z,42.75
2019-05-11T01:57:33.390Z,42.75
2019-05-11T01:57:58.088Z,43.07
2019-05-11T01:58:22.886Z,43.18
2019-05-11T01:58:47.786Z,43.02
2019-05-11T01:59:12.799Z,42.81
2019-05-11T01:59:37.617Z,43.10
2019-05-11T02:00:02.248Z,42.70
2019-05-11T02:00:27.136Z,42.92
2019-05-11T02:00:53.232Z,43.21
2019-05-11T02:01:18.032Z,42.71
2019-05-11T02:01:42.869Z,42.64
2019-05-11T02:02:07.563Z,42.90
2019-05-11T02:02:32.366Z,43.00
2019-05-11T02:02:57.259Z,42.67
2019-05-11T02:03:22.082Z,42.78
2019-05-11T02:03:46.899Z,43.21
2019-05-11T02:04:11.808Z,43.38
2019-05-11T02:04:36.618Z,42.25
2019-05-11T02:05:19.258Z,43.14
2019-05-11T02:05:44.360Z,42.93
2019-05-11T02:06:09.160Z,43.07
2019-05-11T02:06:33.778Z,43.01
2019-05-11T02:06:58.586Z,43.03
2019-05-11T02:07:23.370Z,42.71
2019-05-11T02:07:48.199Z,43.35
2019-05-11T02:08:13.030Z,43.35
2019-05-11T02:08:37.649Z,42.63
2019-05-11T02:09:02.441Z,42.98
2019-05-11T02:09:27.256Z,43.18
2019-05-11T02:09:52.083Z,42.52
2019-05-11T02:10:17.220Z,42.80
2019-05-11T02:10:41.844Z,43.16
2019-05-11T02:11:15.543Z,42.63
2019-05-11T02:11:33.169Z,43.20
2019-05-11T02:11:57.994Z,42.94
2019-05-11T02:12:22.803Z,43.06
2019-05-11T02:12:47.450Z,43.30
2019-05-11T02:13:12.286Z,43.11
2019-05-11T02:13:37.088Z,42.81
2019-05-11T02:14:01.877Z,43.25
2019-05-11T02:14:26.728Z,43.06
2019-05-11T02:14:51.330Z,42.83
2019-05-11T02:15:16.143Z,42.93
2019-05-11T02:15:40.952Z,43.09
2019-05-11T02:16:05.777Z,43.19
2019-05-11T02:16:30.608Z,42.82
2019-05-11T02:16:55.232Z,43.33
2019-05-11T02:17:20.113Z,42.48
2019-05-11T02:17:44.941Z,43.12
2019-05-11T02:18:09.748Z,43.35
2019-05-11T02:18:34.557Z,42.71
2019-05-11T02:18:59.189Z,43.01
2019-05-11T02:19:24.045Z,43.16
2019-05-11T02:19:48.909Z,43.16
2019-05-11T02:20:14.252Z,43.08
2019-05-11T02:20:39.130Z,43.24
2019-05-11T02:21:03.746Z,43.03
2019-05-11T02:21:28.593Z,43.18
2019-05-11T02:21:53.490Z,43.28
2019-05-11T02:22:18.313Z,43.24
2019-05-11T02:22:43.111Z,43.09
2019-05-11T02:23:07.735Z,42.73
2019-05-11T02:23:32.538Z,43.28
2019-05-11T02:23:57.355Z,42.89
2019-05-11T02:24:22.163Z,43.20
2019-05-11T02:24:47.011Z,43.04
2019-05-11T02:25:11.612Z,42.79
2019-05-11T02:25:36.415Z,43.30
2019-05-11T02:26:01.219Z,43.20
2019-05-11T02:26:26.064Z,43.27
2019-05-11T02:26:50.960Z,43.28
2019-05-11T02:27:15.582Z,43.47
2019-05-11T02:27:40.400Z,42.95
2019-05-11T02:28:05.233Z,43.42
2019-05-11T02:28:30.056Z,42.99
2019-05-11T02:28:54.861Z,42.85
2019-05-11T02:29:19.515Z,42.96
2019-05-11T02:29:44.325Z,43.10
2019-05-11T02:30:09.392Z,42.89
2019-05-11T02:30:34.206Z,43.28
2019-05-11T02:30:58.991Z,42.95
2019-05-11T02:31:23.631Z,43.16
2019-05-11T02:31:48.549Z,43.52
2019-05-11T02:32:14.255Z,42.89
2019-05-11T02:32:39.054Z,43.10
2019-05-11T02:33:03.882Z,43.11
2019-05-11T02:33:28.486Z,43.22
2019-05-11T02:33:53.287Z,43.08
2019-05-11T02:34:18.114Z,43.13
2019-05-11T02:34:42.921Z,43.01
2019-05-11T02:35:07.979Z,43.24
2019-05-11T02:35:32.620Z,42.86
2019-05-11T02:35:57.424Z,43.09
2019-05-11T02:36:22.239Z,42.93
2019-05-11T02:36:50.153Z,43.28
2019-05-11T02:37:14.971Z,43.03
2019-05-11T02:37:39.679Z,43.18
2019-05-11T02:38:04.448Z,43.41
2019-05-11T02:38:29.249Z,43.07
2019-05-11T02:38:54.096Z,43.08
2019-05-11T02:39:18.894Z,43.42
2019-05-11T02:39:43.518Z,43.33
2019-05-11T02:40:08.405Z,42.78
2019-05-11T02:40:33.203Z,43.16
2019-05-11T02:40:57.992Z,43.35
2019-05-11T02:41:35.481Z,43.15
2019-05-11T02:41:49.132Z,43.26
2019-05-11T02:42:14.321Z,43.24
2019-05-11T02:42:39.158Z,43.71
2019-05-11T02:43:03.969Z,43.59
2019-05-11T02:43:28.811Z,43.24
2019-05-11T02:43:53.425Z,43.13
2019-05-11T02:44:18.230Z,43.46
2019-05-11T02:44:43.052Z,42.81
2019-05-11T02:45:07.902Z,43.24
2019-05-11T02:45:38.230Z,43.21
2019-05-11T02:46:02.861Z,43.34
2019-05-11T02:46:27.723Z,43.40
2019-05-11T02:46:52.530Z,43.49
2019-05-11T02:47:17.329Z,43.07
2019-05-11T02:47:42.164Z,43.12
2019-05-11T02:48:06.769Z,43.20
2019-05-11T02:48:31.568Z,42.45
2019-05-11T02:48:56.413Z,43.13
2019-05-11T02:49:21.204Z,43.43
2019-05-11T02:49:46.017Z,43.40
2019-05-11T02:50:10.668Z,42.67
2019-05-11T02:50:37.179Z,42.87
2019-05-11T02:51:02.052Z,43.28
2019-05-11T02:51:26.846Z,43.35
2019-05-11T02:51:51.675Z,42.80
2019-05-11T02:52:16.292Z,43.34
2019-05-11T02:52:41.097Z,43.08
2019-05-11T02:53:06.363Z,43.09
2019-05-11T02:53:31.278Z,42.86
2019-05-11T02:53:56.120Z,42.91
2019-05-11T02:54:20.782Z,43.26
2019-05-11T02:54:45.587Z,43.46
2019-05-11T02:55:10.427Z,43.51
2019-05-11T02:55:36.279Z,43.44
2019-05-11T02:56:01.109Z,43.39
2019-05-11T02:56:25.715Z,43.29
2019-05-11T02:56:50.579Z,42.96
2019-05-11T02:57:15.385Z,42.90
2019-05-11T02:57:41.708Z,43.31
2019-05-11T02:58:07.145Z,43.19
2019-05-11T02:58:31.812Z,43.15
2019-05-11T02:58:56.694Z,43.08
2019-05-11T02:59:21.494Z,42.69
2019-05-11T02:59:46.303Z,43.60
2019-05-11T03:00:11.199Z,43.62
2019-05-11T03:00:40.333Z,42.91
2019-05-11T03:01:05.197Z,42.97
2019-05-11T03:01:30.091Z,43.31
2019-05-11T03:01:54.893Z,43.57
2019-05-11T03:02:19.730Z,43.10
2019-05-11T03:02:44.350Z,43.20
2019-05-11T03:03:09.201Z,43.35
2019-05-11T03:03:34.033Z,42.86
2019-05-11T03:03:58.844Z,43.45
2019-05-11T03:04:23.646Z,43.38
2019-05-11T03:04:48.298Z,43.51
2019-05-11T03:05:13.144Z,43.73
2019-05-11T03:05:37.962Z,43.30
2019-05-11T03:06:02.784Z,43.20
2019-05-11T03:06:27.633Z,42.98
2019-05-11T03:06:52.275Z,43.48
2019-05-11T03:07:17.083Z,43.18
2019-05-11T03:07:41.872Z,43.34
2019-05-11T03:08:06.714Z,43.11
2019-05-11T03:08:31.566Z,43.19
2019-05-11T03:08:56.179Z,43.15
2019-05-11T03:09:21.038Z,42.98
2019-05-11T03:09:45.836Z,42.73
2019-05-11T03:10:10.682Z,42.94
2019-05-11T03:10:35.482Z,43.47
2019-05-11T03:11:00.127Z,43.07
2019-05-11T03:11:24.942Z,43.45
2019-05-11T03:11:55.663Z,42.92
2019-05-11T03:12:16.323Z,42.76
2019-05-11T03:12:41.138Z,43.30
2019-05-11T03:13:05.881Z,43.54
2019-05-11T03:13:30.672Z,43.29
2019-05-11T03:13:55.489Z,43.31
2019-05-11T03:14:20.313Z,43.40
2019-05-11T03:14:45.161Z,43.21
2019-05-11T03:15:10.061Z,43.14
2019-05-11T03:15:34.871Z,43.20
2019-05-11T03:15:59.713Z,43.40
2019-05-11T03:16:24.517Z,42.76
2019-05-11T03:16:50.775Z,42.80
2019-05-11T03:17:20.132Z,43.04
2019-05-11T03:17:45.008Z,43.10
2019-05-11T03:18:09.832Z,42.98
2019-05-11T03:18:34.650Z,43.27
2019-05-11T03:18:59.439Z,42.82
2019-05-11T03:19:24.076Z,43.34
2019-05-11T03:19:48.911Z,43.26
2019-05-11T03:20:14.515Z,42.66
2019-05-11T03:20:39.312Z,43.40
2019-05-11T03:21:04.219Z,42.56
2019-05-11T03:21:28.863Z,42.91
2019-05-11T03:21:53.644Z,43.16
2019-05-11T03:22:18.453Z,43.38
2019-05-11T03:22:43.283Z,43.11
2019-05-11T03:23:08.155Z,43.13
2019-05-11T03:23:33.032Z,43.29
2019-05-11T03:23:57.839Z,42.46
2019-05-11T03:24:24.109Z,43.23
2019-05-11T03:24:49.175Z,42.87
2019-05-11T03:25:14.531Z,43.30
2019-05-11T03:25:39.239Z,42.68
2019-05-11T03:26:04.080Z,42.80
2019-05-11T03:26:28.920Z,43.21
2019-05-11T03:26:53.721Z,42.90
2019-05-11T03:27:18.562Z,42.68
2019-05-11T03:27:43.169Z,43.40
2019-05-11T03:28:07.971Z,42.77
2019-05-11T03:28:32.797Z,43.39
2019-05-11T03:28:57.620Z,43.08
2019-05-11T03:29:22.432Z,42.81
2019-05-11T03:29:47.067Z,42.91
2019-05-11T03:30:11.882Z,43.18
2019-05-11T03:30:37.095Z,42.93
2019-05-11T03:31:02.119Z,42.85
2019-05-11T03:31:27.031Z,42.80
2019-05-11T03:31:51.723Z,43.33
2019-05-11T03:32:16.520Z,42.96
2019-05-11T03:32:41.371Z,43.16
2019-05-11T03:33:06.470Z,42.90
2019-05-11T03:33:31.281Z,42.96
2019-05-11T03:33:55.917Z,43.16
2019-05-11T03:34:20.705Z,43.01
2019-05-11T03:34:45.791Z,42.62
2019-05-11T03:35:10.631Z,43.15
2019-05-11T03:35:35.479Z,43.18
2019-05-11T03:36:00.171Z,43.17
2019-05-11T03:36:24.999Z,42.62
2019-05-11T03:36:49.907Z,42.85
2019-05-11T03:37:14.771Z,42.98
2019-05-11T03:37:39.607Z,43.12
2019-05-11T03:38:04.587Z,43.18
2019-05-11T03:38:29.368Z,42.91
2019-05-11T03:38:54.439Z,42.81
2019-05-11T03:39:19.235Z,43.09
2019-05-11T03:39:44.053Z,42.52
2019-05-11T03:40:09.349Z,42.96
2019-05-11T03:40:34.194Z,43.21
2019-05-11T03:40:59.000Z,42.82
2019-05-11T03:41:23.841Z,43.41
2019-05-11T03:41:48.663Z,42.87
2019-05-11T03:42:15.498Z,42.56
2019-05-11T03:42:40.519Z,42.99
2019-05-11T03:43:05.315Z,43.08
2019-05-11T03:43:30.134Z,43.39
2019-05-11T03:43:54.967Z,42.84
2019-05-11T03:44:19.579Z,42.89
2019-05-11T03:44:44.403Z,43.23
2019-05-11T03:45:09.238Z,43.11
2019-05-11T03:45:34.058Z,43.54
2019-05-11T03:45:59.082Z,42.66
2019-05-11T03:46:23.715Z,43.46
2019-05-11T03:46:48.521Z,42.96
2019-05-11T03:47:13.333Z,43.31
2019-05-11T03:47:38.191Z,43.11
2019-05-11T03:48:02.992Z,43.12
2019-05-11T03:48:27.661Z,42.78
2019-05-11T03:48:52.505Z,43.17
2019-05-11T03:49:17.334Z,43.02
2019-05-11T03:49:42.140Z,42.89
2019-05-11T03:50:07.416Z,43.37
2019-05-11T03:50:32.043Z,43.05
2019-05-11T03:50:56.896Z,42.91
2019-05-11T03:51:21.690Z,43.25
2019-05-11T03:51:46.531Z,43.08
2019-05-11T03:52:11.357Z,42.91
2019-05-11T03:52:36.001Z,43.21
2019-05-11T03:53:00.843Z,43.08
2019-05-11T03:53:25.641Z,43.01
2019-05-11T03:53:50.460Z,42.92
2019-05-11T03:54:15.411Z,43.11
2019-05-11T03:54:40.030Z,42.74
2019-05-11T03:55:05.848Z,43.01
2019-05-11T03:55:30.850Z,42.99
2019-05-11T03:55:55.724Z,43.07
2019-05-11T03:56:20.566Z,43.53
2019-05-11T03:56:45.196Z,43.15
2019-05-11T03:57:10.003Z,43.34
2019-05-11T03:57:34.840Z,42.93
2019-05-11T03:57:59.647Z,42.98
2019-05-11T03:58:26.346Z,43.13
2019-05-11T03:58:50.970Z,42.69
2019-05-11T03:59:15.796Z,43.48
2019-05-11T03:59:40.620Z,43.29
2019-05-11T04:00:07.053Z,43.32
2019-05-11T04:00:31.871Z,43.18
2019-05-11T04:00:56.635Z,43.41
2019-05-11T04:01:21.578Z,43.18
2019-05-11T04:01:46.388Z,43.40
2019-05-11T04:02:11.178Z,43.20
2019-05-11T04:02:35.980Z,43.54
2019-05-11T04:03:00.584Z,43.23
2019-05-11T04:03:25.458Z,43.32
2019-05-11T04:03:50.287Z,43.57
2019-05-11T04:04:16.647Z,43.21
2019-05-11T04:04:41.726Z,43.29
2019-05-11T04:05:06.468Z,43.02
2019-05-11T04:05:31.279Z,43.05
2019-05-11T04:05:56.088Z,43.10
2019-05-11T04:06:20.914Z,43.14
2019-05-11T04:06:45.731Z,42.74
2019-05-11T04:07:10.413Z,42.82
2019-05-11T04:07:35.227Z,42.86
2019-05-11T04:08:00.018Z,42.85
2019-05-11T04:08:24.828Z,43.04
2019-05-11T04:08:49.640Z,43.06
2019-05-11T04:09:14.664Z,42.71
2019-05-11T04:09:39.502Z,42.73
2019-05-11T04:10:06.843Z,42.61
2019-05-11T04:10:31.704Z,43.08
2019-05-11T04:10:56.500Z,42.53
2019-05-11T04:11:21.109Z,42.83
2019-05-11T04:11:45.971Z,43.46
2019-05-11T04:12:10.784Z,42.98
2019-05-11T04:12:35.859Z,43.03
2019-05-11T04:13:00.852Z,42.89
2019-05-11T04:13:25.486Z,43.16
2019-05-11T04:13:50.272Z,42.98
2019-05-11T04:14:15.118Z,43.13
2019-05-11T04:14:39.945Z,43.05
2019-05-11T04:15:06.729Z,43.11
2019-05-11T04:15:31.481Z,43.00
2019-05-11T04:15:56.294Z,43.05
2019-05-11T04:16:21.099Z,43.32
2019-05-11T04:16:45.899Z,43.04
2019-05-11T04:17:10.807Z,43.35
2019-05-11T04:17:35.412Z,43.34
2019-05-11T04:18:00.206Z,43.28
2019-05-11T04:18:25.186Z,43.48
2019-05-11T04:18:50.011Z,43.32
2019-05-11T04:19:14.840Z,43.73
2019-05-11T04:19:39.490Z,43.46
2019-05-11T04:20:05.794Z,43.35
2019-05-11T04:20:30.601Z,43.43
2019-05-11T04:20:55.404Z,43.18
2019-05-11T04:21:20.214Z,42.95
2019-05-11T04:21:44.848Z,43.18
2019-05-11T04:22:09.661Z,43.31
2019-05-11T04:22:34.564Z,42.97
2019-05-11T04:22:59.379Z,43.52
2019-05-11T04:23:24.233Z,43.24
2019-05-11T04:23:48.839Z,42.95
2019-05-11T04:24:14.750Z,42.88
2019-05-11T04:24:39.590Z,42.85
2019-05-11T04:25:05.481Z,43.23
2019-05-11T04:25:30.284Z,42.77
2019-05-11T04:25:54.928Z,42.95
2019-05-11T04:26:19.736Z,43.20
2019-05-11T04:26:44.549Z,42.83
2019-05-11T04:27:09.472Z,42.77
2019-05-11T04:27:34.302Z,43.07
2019-05-11T04:27:58.906Z,43.07
2019-05-11T04:28:23.732Z,43.12
2019-05-11T04:28:48.550Z,43.22
2019-05-11T04:29:13.365Z,43.04
2019-05-11T04:29:38.155Z,43.06
2019-05-11T04:30:03.231Z,42.69
2019-05-11T04:30:28.054Z,42.49
2019-05-11T04:30:52.892Z,42.49
2019-05-11T04:31:17.734Z,42.42
2019-05-11T04:31:42.536Z,41.88
2019-05-11T04:32:07.144Z,41.98
2019-05-11T04:32:32.034Z,42.09
2019-05-11T04:32:56.809Z,42.57
2019-05-11T04:33:21.625Z,42.46
2019-05-11T04:33:46.445Z,42.26
2019-05-11T04:34:11.046Z,42.51
2019-05-11T04:34:35.846Z,42.67
2019-05-11T04:35:00.673Z,42.57
2019-05-11T04:35:25.543Z,42.24
2019-05-11T04:35:50.358Z,42.58
2019-05-11T04:36:14.986Z,42.34
2019-05-11T04:36:39.806Z,42.16
2019-05-11T04:37:04.628Z,42.24
2019-05-11T04:37:29.428Z,42.36
2019-05-11T04:37:54.232Z,42.24
2019-05-11T04:38:18.880Z,42.50
2019-05-11T04:38:43.676Z,42.39
2019-05-11T04:39:08.488Z,42.63
2019-05-11T04:39:33.296Z,41.91
2019-05-11T04:39:58.144Z,42.27
2019-05-11T04:40:22.740Z,42.15
2019-05-11T04:40:47.543Z,41.99
2019-05-11T04:41:12.387Z,41.78
2019-05-11T04:41:37.174Z,41.54
2019-05-11T04:42:01.976Z,41.68
2019-05-11T04:42:26.626Z,41.80
2019-05-11T04:42:55.784Z,41.70
2019-05-11T04:43:18.126Z,41.55
2019-05-11T04:43:42.926Z,41.37
2019-05-11T04:44:07.753Z,41.89
2019-05-11T04:44:32.381Z,41.16
2019-05-11T04:44:57.200Z,41.26
2019-05-11T04:45:21.997Z,41.26
2019-05-11T04:45:46.874Z,41.36
2019-05-11T04:46:11.698Z,41.55
2019-05-11T04:46:36.376Z,40.87
2019-05-11T04:47:01.181Z,41.17
2019-05-11T04:47:26.011Z,41.16
2019-05-11T04:47:50.825Z,41.03
2019-05-11T04:48:15.646Z,40.97
2019-05-11T04:48:40.272Z,40.81
2019-05-11T04:49:05.125Z,40.66
2019-05-11T04:49:29.925Z,41.03
2019-05-11T04:49:54.729Z,40.86
2019-05-11T04:50:19.536Z,40.93
2019-05-11T04:50:44.162Z,41.12
2019-05-11T04:51:08.960Z,41.33
2019-05-11T04:51:33.777Z,41.06
2019-05-11T04:51:58.608Z,40.60
2019-05-11T04:52:23.427Z,41.03
2019-05-11T04:52:48.061Z,40.79
2019-05-11T04:53:12.902Z,40.88
2019-05-11T04:53:37.744Z,40.86
2019-05-11T04:54:02.558Z,40.82
2019-05-11T04:54:27.370Z,40.62
2019-05-11T04:54:52.002Z,40.83
2019-05-11T04:55:16.842Z,40.96
2019-05-11T04:55:41.658Z,40.64
2019-05-11T04:56:06.488Z,40.83
2019-05-11T04:56:31.303Z,40.63
2019-05-11T04:56:55.925Z,40.96
2019-05-11T04:57:20.769Z,40.54
2019-05-11T04:57:45.598Z,40.53
2019-05-11T04:58:10.390Z,40.86
2019-05-11T04:58:35.185Z,40.82
2019-05-11T04:58:59.886Z,41.04
2019-05-11T04:59:24.736Z,40.58
2019-05-11T04:59:49.556Z,40.43
2019-05-11T05:00:14.665Z,40.08
2019-05-11T05:00:39.504Z,40.53
2019-05-11T05:01:04.167Z,40.91
2019-05-11T05:01:29.012Z,40.43
2019-05-11T05:01:53.822Z,40.67
2019-05-11T05:02:18.639Z,40.47
2019-05-11T05:02:43.633Z,40.42
2019-05-11T05:03:08.253Z,40.53
2019-05-11T05:03:40.652Z,40.36
2019-05-11T05:04:13.356Z,40.20
2019-05-11T05:04:26.191Z,40.45
2019-05-11T05:04:51.008Z,40.49
2019-05-11T05:05:15.650Z,40.67
2019-05-11T05:05:40.450Z,40.12
2019-05-11T05:06:22.053Z,40.67
2019-05-11T05:06:31.825Z,40.75
2019-05-11T05:06:59.842Z,40.62
2019-05-11T05:07:22.993Z,40.29
2019-05-11T05:07:50.308Z,40.21
2019-05-11T05:08:14.377Z,40.16
2019-05-11T05:08:39.231Z,40.72
2019-05-11T05:09:06.191Z,40.74
2019-05-11T05:09:36.009Z,40.60
2019-05-11T05:09:57.381Z,40.26
2019-05-11T05:10:22.547Z,40.42
2019-05-11T05:10:52.635Z,40.34
2019-05-11T05:11:14.071Z,40.47
2019-05-11T05:11:38.745Z,40.11
2019-05-11T05:12:08.525Z,40.51
2019-05-11T05:12:30.057Z,40.50
2019-05-11T05:13:09.677Z,40.79
2019-05-11T05:13:23.219Z,40.33
2019-05-11T05:13:47.869Z,39.87
2019-05-11T05:14:12.735Z,40.03
2019-05-11T05:14:37.554Z,39.63
2019-05-11T05:15:02.402Z,40.25
2019-05-11T05:15:27.229Z,40.28
2019-05-11T05:15:51.851Z,40.01
2019-05-11T05:16:16.664Z,39.77
2019-05-11T05:16:41.578Z,39.83
2019-05-11T05:17:06.453Z,39.83
2019-05-11T05:17:31.259Z,40.73
2019-05-11T05:17:55.899Z,40.05
2019-05-11T05:18:20.709Z,39.78
2019-05-11T05:18:45.546Z,40.25
2019-05-11T05:19:10.403Z,39.73
2019-05-11T05:19:35.212Z,40.03
2019-05-11T05:19:59.863Z,39.90
2019-05-11T05:20:24.710Z,39.95
2019-05-11T05:20:49.518Z,40.27
2019-05-11T05:21:14.324Z,39.98